| Date | Time | Temp. (oF) | Dew Point (oF) | Rel. Hum. (%) | Press. (in.) | Wind Dir. | Wind Speed (mph) | Hourly Rainfall (in.) |
|
|---|---|---|---|---|---|---|---|---|---|
| 1 | 01/04 | 00:00 | 26 | 16 | 68 | 29.96 | WNW | 6 | 0.00 |
| 2 | 01/03 | 23:00 | 26 | 15 | 65 | 29.97 | W | 5 | 0.00 |
| 3 | 01/03 | 22:00 | 27 | 15 | 61 | 29.97 | WNW | 4 | 0.00 |
| 4 | 01/03 | 21:00 | 29 | 15 | 57 | 29.97 | WNW | 4 | 0.00 |
| 5 | 01/03 | 20:00 | 30 | 15 | 54 | 29.96 | NW | 7 | 0.00 |
| 6 | 01/03 | 19:00 | 29 | 16 | 58 | 29.95 | NNW | 6 | 0.00 |
| 7 | 01/03 | 18:00 | 30 | 15 | 55 | 29.94 | NW | 6 | 0.00 |
| 8 | 01/03 | 17:00 | 32 | 14 | 49 | 29.91 | NW | 6 | 0.00 |
| 9 | 01/03 | 16:00 | 34 | 14 | 45 | 29.89 | NNW | 11 | 0.00 |
| 10 | 01/03 | 15:00 | 35 | 16 | 47 | 29.90 | WNW | 9 | 0.00 |
| 11 | 01/03 | 14:00 | 34 | 17 | 51 | 29.92 | NW | 6 | 0.00 |
| 12 | 01/03 | 13:00 | 31 | 17 | 56 | 29.96 | WNW | 4 | 0.00 |
| 13 | 01/03 | 12:00 | 29 | 17 | 61 | 30.00 | NW | 4 | 0.00 |
| 14 | 01/03 | 11:00 | 27 | 16 | 65 | 30.05 | NNW | 7 | 0.00 |
| 15 | 01/03 | 10:00 | 24 | 15 | 71 | 30.08 | N | 4 | 0.00 |
| 16 | 01/03 | 09:00 | 23 | 15 | 74 | 30.12 | NNW | 4 | 0.00 |
| 17 | 01/03 | 08:00 | 23 | 16 | 75 | 30.11 | NW | 3 | 0.00 |
| 18 | 01/03 | 07:00 | 23 | 16 | 75 | 30.10 | NNW | 2 | 0.00 |
| 19 | 01/03 | 06:00 | 23 | 16 | 75 | 30.11 | NW | 2 | 0.00 |
| 20 | 01/03 | 05:00 | 23 | 16 | 75 | 30.12 | NW | 2 | 0.00 |
| 21 | 01/03 | 04:00 | 23 | 15 | 74 | 30.11 | NW | 4 | 0.00 |
| 22 | 01/03 | 03:00 | 22 | 18 | 85 | 30.14 | WNW | 4 | 0.00 |
| 23 | 01/03 | 02:00 | 20 | 16 | 85 | 30.18 | WNW | 0 | 0.00 |
| 24 | 01/03 | 01:00 | 21 | 16 | 82 | 30.18 | SSW | 0 | 0.00 |